Time,TemperatureF,DewpointF,PressureIn,WindDirection,WindDirectionDegrees,WindSpeedMPH,WindSpeedGustMPH,Humidity,HourlyPrecipIn,Conditions,Clouds,dailyrainin,SolarRadiationWatts/m^2,SoftwareType,DateUTC
2013-05-27 00:07:00,60.1,53.0,30.09,WSW,243,0.0,2.0,76,0.00,,,0.00,0,weatherlink.com 1.10,2013-05-27 04:07:00,
2013-05-27 00:22:00,60.3,52.0,30.09,WSW,243,0.0,3.0,75,0.00,,,0.00,0,weatherlink.com 1.10,2013-05-27 04:22:00,
2013-05-27 00:37:00,60.2,53.0,30.07,ESE,116,1.0,5.0,76,0.00,,,0.00,0,weatherlink.com 1.10,2013-05-27 04:37:00,
2013-05-27 00:52:00,60.3,52.0,30.08,ESE,112,1.0,4.0,75,0.00,,,0.00,0,weatherlink.com 1.10,2013-05-27 04:52:00,
2013-05-27 01:08:00,60.5,52.0,30.07,ESE,113,0.0,5.0,73,0.00,,,0.00,0,weatherlink.com 1.10,2013-05-27 05:08:00,
2013-05-27 01:23:00,60.7,52.0,30.07,ESE,114,1.0,4.0,72,0.00,,,0.00,0,weatherlink.com 1.10,2013-05-27 05:23:00,
2013-05-27 01:38:00,60.8,52.0,30.07,ESE,113,2.0,4.0,72,0.00,,,0.00,0,weatherlink.com 1.10,2013-05-27 05:38:00,
2013-05-27 01:53:00,60.8,52.0,30.07,ESE,116,1.0,5.0,72,0.00,,,0.00,0,weatherlink.com 1.10,2013-05-27 05:53:00,
2013-05-27 02:08:00,60.8,52.0,30.07,SE,144,5.0,5.0,72,0.00,,,0.00,0,weatherlink.com 1.10,2013-05-27 06:08:00,
2013-05-27 02:23:00,60.8,51.0,30.06,SE,138,3.0,6.0,71,0.00,,,0.00,0,weatherlink.com 1.10,2013-05-27 06:23:00,
2013-05-27 02:38:00,60.7,51.0,30.05,SE,131,1.0,5.0,71,0.00,,,0.00,0,weatherlink.com 1.10,2013-05-27 06:38:00,
2013-05-27 02:53:00,60.5,51.0,30.05,SE,144,2.0,8.0,71,0.00,,,0.00,0,weatherlink.com 1.10,2013-05-27 06:53:00,
2013-05-27 03:08:00,60.1,51.0,30.07,SSE,147,6.0,9.0,71,0.00,,,0.00,0,weatherlink.com 1.10,2013-05-27 07:08:00,
2013-05-27 03:23:00,59.6,51.0,30.06,SE,125,7.0,9.0,72,0.00,,,0.00,0,weatherlink.com 1.10,2013-05-27 07:23:00,
2013-05-27 03:38:00,59.0,50.0,30.07,SE,145,1.0,9.0,73,0.00,,,0.00,0,weatherlink.com 1.10,2013-05-27 07:38:00,
2013-05-27 03:53:00,58.3,51.0,30.06,SE,134,5.0,10.0,76,0.00,,,0.00,0,weatherlink.com 1.10,2013-05-27 07:53:00,
2013-05-27 04:08:00,57.1,51.0,30.06,SE,127,4.0,8.0,81,0.02,,,0.02,0,weatherlink.com 1.10,2013-05-27 08:08:00,
2013-05-27 04:23:00,55.7,51.0,30.06,SE,130,4.0,10.0,84,0.04,,,0.04,0,weatherlink.com 1.10,2013-05-27 08:23:00,
2013-05-27 04:38:00,54.1,50.0,30.05,ESE,113,10.0,15.0,86,0.08,,,0.08,0,weatherlink.com 1.10,2013-05-27 08:38:00,
2013-05-27 04:53:00,53.0,50.0,30.05,ESE,105,3.0,10.0,88,0.10,,,0.10,0,weatherlink.com 1.10,2013-05-27 08:53:00,
2013-05-27 05:08:00,52.3,49.0,30.04,SE,138,4.0,14.0,89,0.10,,,0.12,0,weatherlink.com 1.10,2013-05-27 09:08:00,
2013-05-27 05:23:00,51.7,49.0,30.05,ESE,118,3.0,8.0,90,0.09,,,0.13,0,weatherlink.com 1.10,2013-05-27 09:23:00,
2013-05-27 05:38:00,51.2,48.0,30.05,SSE,160,2.0,13.0,90,0.06,,,0.14,0,weatherlink.com 1.10,2013-05-27 09:38:00,
2013-05-27 05:53:00,50.8,48.0,30.04,SE,140,7.0,12.0,90,0.06,,,0.16,0,weatherlink.com 1.10,2013-05-27 09:53:00,
2013-05-27 06:08:00,50.5,48.0,30.04,SE,135,7.0,12.0,91,0.06,,,0.18,0,weatherlink.com 1.10,2013-05-27 10:08:00,
2013-05-27 06:23:00,50.4,48.0,30.05,ESE,102,1.0,11.0,92,0.06,,,0.19,0,weatherlink.com 1.10,2013-05-27 10:23:00,
2013-05-27 06:38:00,50.4,48.0,30.05,SE,126,5.0,15.0,92,0.09,,,0.23,0,weatherlink.com 1.10,2013-05-27 10:38:00,
2013-05-27 06:53:00,50.3,48.0,30.04,SE,127,8.0,16.0,92,0.10,,,0.26,5,weatherlink.com 1.10,2013-05-27 10:53:00,
2013-05-27 07:08:00,50.3,48.0,30.04,SE,131,6.0,12.0,93,0.11,,,0.29,12,weatherlink.com 1.10,2013-05-27 11:08:00,
2013-05-27 07:23:00,50.3,49.0,30.04,ESE,116,2.0,14.0,94,0.14,,,0.33,16,weatherlink.com 1.10,2013-05-27 11:23:00,
2013-05-27 07:39:00,50.1,49.0,30.04,ESE,111,4.0,17.0,94,0.13,,,0.36,9,weatherlink.com 1.10,2013-05-27 11:39:00,
2013-05-27 07:54:00,50.0,48.0,30.03,SE,137,9.0,17.0,93,0.13,,,0.39,12,weatherlink.com 1.10,2013-05-27 11:54:00,
2013-05-27 08:09:00,49.9,48.0,30.03,ESE,103,7.0,13.0,94,0.14,,,0.43,23,weatherlink.com 1.10,2013-05-27 12:09:00,
2013-05-27 08:24:00,50.0,49.0,30.03,SE,138,3.0,14.0,95,0.13,,,0.46,18,weatherlink.com 1.10,2013-05-27 12:24:00,
2013-05-27 08:39:00,50.2,49.0,30.03,SE,125,6.0,15.0,95,0.14,,,0.50,21,weatherlink.com 1.10,2013-05-27 12:39:00,
2013-05-27 08:54:00,50.4,49.0,30.01,ENE,66,5.0,18.0,95,0.13,,,0.52,42,weatherlink.com 1.10,2013-05-27 12:54:00,
2013-05-27 09:09:00,50.6,49.0,30.02,ESE,106,12.0,15.0,95,0.10,,,0.53,46,weatherlink.com 1.10,2013-05-27 13:09:00,
2013-05-27 09:24:00,50.9,50.0,30.01,ESE,122,9.0,16.0,95,0.06,,,0.53,49,weatherlink.com 1.10,2013-05-27 13:24:00,
2013-05-27 09:39:00,51.2,50.0,30.01,ESE,108,8.0,18.0,95,0.03,,,0.53,33,weatherlink.com 1.10,2013-05-27 13:39:00,
2013-05-27 09:54:00,51.3,50.0,30.00,SE,136,11.0,19.0,94,0.01,,,0.53,90,weatherlink.com 1.10,2013-05-27 13:54:00,
2013-05-27 10:09:00,51.6,50.0,30.00,SE,133,4.0,14.0,94,0.00,,,0.53,58,weatherlink.com 1.10,2013-05-27 14:09:00,
2013-05-27 10:24:00,51.7,50.0,30.00,East,86,9.0,13.0,94,0.00,,,0.53,81,weatherlink.com 1.10,2013-05-27 14:24:00,
2013-05-27 10:39:00,52.0,50.0,29.99,ESE,102,2.0,14.0,94,0.01,,,0.54,86,weatherlink.com 1.10,2013-05-27 14:39:00,
2013-05-27 10:54:00,52.3,51.0,29.98,ESE,113,5.0,13.0,94,0.05,,,0.58,141,weatherlink.com 1.10,2013-05-27 14:54:00,
2013-05-27 11:09:00,52.9,51.0,29.97,ESE,122,3.0,11.0,94,0.05,,,0.58,178,weatherlink.com 1.10,2013-05-27 15:09:00,
2013-05-27 11:24:00,53.3,51.0,29.97,East,100,6.0,14.0,93,0.05,,,0.58,65,weatherlink.com 1.10,2013-05-27 15:24:00,
2013-05-27 11:39:00,53.6,52.0,29.98,SE,139,5.0,14.0,93,0.03,,,0.58,111,weatherlink.com 1.10,2013-05-27 15:39:00,
2013-05-27 11:54:00,53.9,52.0,29.98,SSE,147,6.0,17.0,93,0.00,,,0.58,207,weatherlink.com 1.10,2013-05-27 15:54:00,
2013-05-27 12:09:00,54.5,53.0,29.98,SE,132,5.0,11.0,93,0.02,,,0.60,220,weatherlink.com 1.10,2013-05-27 16:09:00,
2013-05-27 12:24:00,55.0,53.0,29.97,SE,124,5.0,11.0,94,0.05,,,0.63,251,weatherlink.com 1.10,2013-05-27 16:24:00,
2013-05-27 12:39:00,54.8,53.0,29.96,East,89,2.0,13.0,94,0.10,,,0.68,121,weatherlink.com 1.10,2013-05-27 16:39:00,
2013-05-27 12:54:00,54.9,54.0,29.96,ESE,119,5.0,13.0,95,0.12,,,0.70,251,weatherlink.com 1.10,2013-05-27 16:54:00,
2013-05-27 13:09:00,55.7,54.0,29.95,ESE,116,5.0,15.0,95,0.10,,,0.70,318,weatherlink.com 1.10,2013-05-27 17:09:00,
2013-05-27 13:24:00,55.9,54.0,29.94,SE,128,3.0,15.0,93,0.07,,,0.70,192,weatherlink.com 1.10,2013-05-27 17:24:00,
2013-05-27 13:39:00,56.2,54.0,29.93,SE,143,9.0,16.0,93,0.02,,,0.70,190,weatherlink.com 1.10,2013-05-27 17:39:00,
2013-05-27 13:54:00,56.5,55.0,29.92,ESE,102,3.0,13.0,93,0.00,,,0.70,295,weatherlink.com 1.10,2013-05-27 17:54:00,
2013-05-27 14:09:00,57.6,55.0,29.91,SE,136,12.0,16.0,92,0.00,,,0.70,638,weatherlink.com 1.10,2013-05-27 18:09:00,
2013-05-27 14:24:00,58.3,55.0,29.91,East,100,13.0,19.0,89,0.00,,,0.70,332,weatherlink.com 1.10,2013-05-27 18:24:00,
2013-05-27 14:39:00,58.9,56.0,29.91,ESE,108,14.0,15.0,89,0.00,,,0.70,343,weatherlink.com 1.10,2013-05-27 18:39:00,
2013-05-27 14:54:00,59.1,56.0,29.91,SSE,161,4.0,17.0,88,0.00,,,0.70,204,weatherlink.com 1.10,2013-05-27 18:54:00,
2013-05-27 15:09:00,59.2,56.0,29.91,SE,137,6.0,14.0,88,0.00,,,0.70,120,weatherlink.com 1.10,2013-05-27 19:09:00,
2013-05-27 15:24:00,58.9,56.0,29.90,ESE,104,10.0,15.0,89,0.00,,,0.70,60,weatherlink.com 1.10,2013-05-27 19:24:00,
2013-05-27 15:40:00,58.7,56.0,29.90,SE,128,4.0,15.0,90,0.00,,,0.70,56,weatherlink.com 1.10,2013-05-27 19:40:00,
2013-05-27 15:55:00,58.5,56.0,29.89,East,89,7.0,14.0,91,0.01,,,0.71,76,weatherlink.com 1.10,2013-05-27 19:55:00,
2013-05-27 16:10:00,58.1,56.0,29.89,East,82,5.0,9.0,92,0.03,,,0.73,40,weatherlink.com 1.10,2013-05-27 20:10:00,
2013-05-27 16:25:00,58.2,56.0,29.88,ENE,76,7.0,8.0,93,0.04,,,0.74,56,weatherlink.com 1.10,2013-05-27 20:25:00,
2013-05-27 16:40:00,58.1,56.0,29.87,East,92,3.0,9.0,94,0.09,,,0.79,62,weatherlink.com 1.10,2013-05-27 20:40:00,
2013-05-27 16:55:00,58.0,56.0,29.87,ENE,63,4.0,7.0,94,0.11,,,0.82,30,weatherlink.com 1.10,2013-05-27 20:55:00,
2013-05-27 17:10:00,57.7,56.0,29.87,East,93,3.0,7.0,95,0.10,,,0.83,46,weatherlink.com 1.10,2013-05-27 21:10:00,
2013-05-27 17:25:00,57.7,56.0,29.87,ENE,60,0.0,9.0,95,0.10,,,0.84,30,weatherlink.com 1.10,2013-05-27 21:25:00,
2013-05-27 17:40:00,57.6,56.0,29.86,NE,39,3.0,9.0,95,0.05,,,0.84,30,weatherlink.com 1.10,2013-05-27 21:40:00,
2013-05-27 17:55:00,57.7,56.0,29.85,ENE,74,5.0,8.0,95,0.02,,,0.84,221,weatherlink.com 1.10,2013-05-27 21:55:00,
2013-05-27 18:10:00,58.1,57.0,29.84,East,91,3.0,11.0,95,0.01,,,0.84,95,weatherlink.com 1.10,2013-05-27 22:10:00,
2013-05-27 18:25:00,58.4,57.0,29.84,ENE,74,8.0,9.0,95,0.00,,,0.84,156,weatherlink.com 1.10,2013-05-27 22:25:00,
2013-05-27 18:40:00,58.8,57.0,29.84,ENE,64,5.0,9.0,95,0.00,,,0.84,54,weatherlink.com 1.10,2013-05-27 22:40:00,
2013-05-27 18:55:00,58.9,58.0,29.83,ENE,58,5.0,9.0,95,0.00,,,0.84,97,weatherlink.com 1.10,2013-05-27 22:55:00,
2013-05-27 19:10:00,59.2,58.0,29.83,ENE,58,0.0,9.0,95,0.00,,,0.84,70,weatherlink.com 1.10,2013-05-27 23:10:00,
2013-05-27 19:25:00,59.4,58.0,29.83,East,83,3.0,9.0,95,0.00,,,0.84,76,weatherlink.com 1.10,2013-05-27 23:25:00,
2013-05-27 19:39:00,59.6,58.0,29.82,East,82,3.0,9.0,95,0.00,,,0.84,53,weatherlink.com 1.10,2013-05-27 23:39:00,
2013-05-27 19:55:00,59.8,58.0,29.82,ENE,66,3.0,9.0,95,0.00,,,0.84,30,weatherlink.com 1.10,2013-05-27 23:55:00,
2013-05-27 20:10:00,60.2,59.0,29.82,ESE,116,4.0,7.0,95,0.00,,,0.84,14,weatherlink.com 1.10,2013-05-28 00:10:00,
2013-05-27 20:25:00,60.4,59.0,29.82,ESE,104,4.0,11.0,94,0.00,,,0.84,5,weatherlink.com 1.10,2013-05-28 00:25:00,
2013-05-27 20:40:00,60.0,58.0,29.81,East,87,3.0,11.0,93,0.00,,,0.84,0,weatherlink.com 1.10,2013-05-28 00:40:00,
2013-05-27 20:55:00,59.6,58.0,29.82,East,98,2.0,8.0,93,0.02,,,0.86,0,weatherlink.com 1.10,2013-05-28 00:55:00,
2013-05-27 21:10:00,58.9,58.0,29.83,ENE,76,7.0,8.0,95,0.08,,,0.92,0,weatherlink.com 1.10,2013-05-28 01:10:00,
2013-05-27 21:25:00,58.4,57.0,29.82,East,81,2.0,6.0,95,0.13,,,0.97,0,weatherlink.com 1.10,2013-05-28 01:25:00,
2013-05-27 21:40:00,58.2,57.0,29.81,ESE,110,4.0,8.0,96,0.16,,,1.00,0,weatherlink.com 1.10,2013-05-28 01:40:00,
2013-05-27 21:55:00,58.1,57.0,29.82,East,101,4.0,7.0,96,0.17,,,1.03,0,weatherlink.com 1.10,2013-05-28 01:55:00,
2013-05-27 22:10:00,58.0,57.0,29.82,East,82,3.0,5.0,96,0.12,,,1.04,0,weatherlink.com 1.10,2013-05-28 02:10:00,
2013-05-27 22:25:00,58.0,57.0,29.82,ENE,70,2.0,6.0,96,0.07,,,1.04,0,weatherlink.com 1.10,2013-05-28 02:25:00,
2013-05-27 22:40:00,58.0,57.0,29.82,ENE,78,2.0,5.0,97,0.04,,,1.04,0,weatherlink.com 1.10,2013-05-28 02:40:00,
2013-05-27 22:55:00,58.0,57.0,29.82,ENE,76,2.0,4.0,97,0.01,,,1.04,0,weatherlink.com 1.10,2013-05-28 02:55:00,
2013-05-27 23:10:00,57.9,57.0,29.82,East,85,2.0,7.0,97,0.00,,,1.04,0,weatherlink.com 1.10,2013-05-28 03:10:00,
2013-05-27 23:25:00,57.8,57.0,29.82,ENE,73,1.0,5.0,97,0.00,,,1.04,0,weatherlink.com 1.10,2013-05-28 03:25:00,
2013-05-27 23:40:00,57.7,57.0,29.83,ENE,78,0.0,5.0,97,0.00,,,1.04,0,weatherlink.com 1.10,2013-05-28 03:40:00,
2013-05-27 23:55:00,57.7,57.0,29.82,East,88,1.0,5.0,97,0.00,,,1.04,0,weatherlink.com 1.10,2013-05-28 03:55:00,